Flight Track Log - Related Links

Times and Time Zones

All times are in EDT time to prevent confusion due to time zone crossing. See the UAL407 flight status page for this flight to view local times or setup timezone preferences in your user account.

Time Position Orientation Groundspeed Altitude Reporting Facility
EDT Latitude Longitude Course Direction KTS MPH feet Rate Location/Type
Fri 08:53:42 PM 41.4153 -81.8403 254° West 143 165 1,700  Level Cleveland Center
Fri 08:54:43 PM 41.4653 -81.8439 357° North 228 262 3,200 2,579 Climbing Cleveland Center
Fri 08:55:43 PM 41.5250 -81.9061 322° Northwest 292 336 6,900 3,633 Climbing Cleveland Center
Fri 08:56:00 PM 41.3465 -82.2051 263° West  Level FlightAware Approximate
Fri 08:56:32 PM 41.5283 -81.9839 273° West 284 327 9,800  Level Cleveland Center
Fri 08:56:48 PM 41.5258 -82.0114 263° West 293 337 10,600 2,289 Climbing Cleveland Center
Fri 08:57:00 PM 41.3355 -82.3260 263° West  Level FlightAware Approximate
Fri 08:57:48 PM 41.4786 -82.1131 238° Southwest 305 351 12,700  Level Cleveland Center
Fri 08:58:00 PM 41.3126 -82.4435 254° West  Level FlightAware Approximate
Fri 08:58:48 PM 41.4292 -82.2281 240° Southwest 338 389 16,100  Level Cleveland Center
Fri 08:59:48 PM 41.3836 -82.3350 240° Southwest 355 409 20,100 3,050 Climbing Cleveland Center
Fri 09:00:48 PM 41.3361 -82.4469 241° Southwest 350 403 22,200 2,200 Climbing Cleveland Center
Fri 09:01:48 PM 41.3006 -82.5731 249° West 357 411 24,500 2,100 Climbing Cleveland Center
Fri 09:02:48 PM 41.2858 -82.6942 261° West 363 418 26,400 1,900 Climbing Cleveland Center
Fri 09:03:48 PM 41.2644 -82.8372 259° West 388 447 28,300 1,300 Climbing Cleveland Center
Fri 09:04:48 PM 41.2994 -82.9656 290° West 380 437 29,000 353 Climbing Cleveland Center
Fri 09:05:47 PM 41.3933 -83.0522 325° Northwest 388 447 29,000  Level Cleveland Center
Fri 09:06:48 PM 41.4833 -83.1389 324° Northwest 396 456 29,000  Level Cleveland Center
Fri 09:07:47 PM 41.5136 -83.2731 287° West 378 435 29,000  Level Cleveland Center
Fri 09:08:48 PM 41.4461 -83.3867 232° Southwest 314 361 29,000  Level Cleveland Center
Fri 09:09:48 PM 41.3725 -83.4914 227° Southwest 342 394 29,000  Level Cleveland Center
Fri 09:10:47 PM 41.3011 -83.5961 228° Southwest 371 427 29,000  Level Cleveland Center
Fri 09:11:48 PM 41.2275 -83.7003 227° Southwest 383 441 29,000  Level Cleveland Center
Fri 09:12:47 PM 41.1558 -83.8044 228° Southwest 389 448 29,000  Level Cleveland Center
Fri 09:13:48 PM 41.0903 -83.9058 229° Southwest 380 437 29,000 397 Level Cleveland Center
Fri 09:14:48 PM 41.0736 -84.0428 261° West 364 419 29,800 500 Climbing Cleveland Center
Fri 09:15:48 PM 41.1517 -84.1544 313° West 340 391 30,000 100 Climbing Cleveland Center
Fri 09:16:48 PM 41.2358 -84.2614 316° Northwest 373 429 30,000  Level Cleveland Center
Fri 09:17:56 PM 41.3289 -84.3869 315° West 417 480 30,000  Level Chicago Center
Fri 09:18:58 PM 41.3403 -84.5383 276° West 414 476 30,000  Level Chicago Center
Fri 09:20:00 PM 41.3358 -84.6889 268° West 409 471 30,000  Level Chicago Center
Fri 09:21:02 PM 41.3303 -84.8711 268° West 410 472 30,000  Level Chicago Center
Fri 09:22:04 PM 41.3247 -85.0217 267° West 408 470 30,000  Level Chicago Center
Fri 09:23:06 PM 41.3183 -85.1733 267° West 409 471 30,000  Level Chicago Center
Fri 09:24:08 PM 41.3122 -85.3267 267° West 411 473 30,000  Level Chicago Center
Fri 09:25:09 PM 41.3067 -85.4800 267° West 412 474 30,000 -780 Level Chicago Center
Fri 09:26:11 PM 41.3000 -85.6317 267° West 409 471 28,400 -1,645 Descending Chicago Center
Fri 09:27:13 PM 41.2936 -85.7806 267° West 403 464 26,600 -1,548 Descending Chicago Center
Fri 09:28:15 PM 41.2869 -85.9233 266° West 387 445 25,200 -774 Descending Chicago Center
Fri 09:29:17 PM 41.2792 -86.0636 266° West 381 438 25,000 -146 Descending Chicago Center
Fri 09:30:18 PM 41.1997 -86.1453 218° Southwest 307 353 24,900 -683 Descending Chicago Center
Fri 09:31:20 PM 41.1317 -86.1081 158° South 282 325 23,600 -1,210 Descending Chicago Center
Fri 09:32:22 PM 41.1103 -86.0136 107° East 283 326 22,400 -1,113 Descending Chicago Center
Fri 09:33:24 PM 41.1108 -85.9136 90° East 274 315 21,300 -1,073 Descending Chicago Center
Fri 09:34:25 PM 41.1103 -85.8153 90° East 269 310 20,200 -634 Descending Chicago Center
Fri 09:35:27 PM 41.1392 -85.7272 66° East 281 323 20,000 -97 Descending Chicago Center
Fri 09:36:29 PM 41.2375 -85.7136 North 315 362 20,000  Level Chicago Center
Fri 09:37:31 PM 41.2811 -85.8100 301° West 315 362 20,000  Level Chicago Center
Fri 09:38:32 PM 41.2814 -85.9253 270° West 312 359 20,000  Level Chicago Center
Fri 09:39:34 PM 41.2817 -86.0403 270° West 311 358 20,000  Level Chicago Center
Fri 09:40:36 PM 41.2297 -86.1050 223° Southwest 279 321 20,000  Level Chicago Center
Fri 09:41:38 PM 41.1806 -86.0533 142° Southeast 251 289 20,000  Level Chicago Center
Fri 09:42:39 PM 41.1911 -85.9572 82° East 274 315 20,000  Level Chicago Center
Fri 09:43:41 PM 41.2689 -85.9672 354° North 313 360 20,000  Level Chicago Center
Fri 09:44:43 PM 41.2836 -86.1050 278° West 319 367 20,000 -339 Level Chicago Center
Fri 09:45:45 PM 41.2881 -86.2311 273° West 337 388 19,300 -927 Descending Chicago Center
Fri 09:46:46 PM 41.3089 -86.3528 283° West 344 396 18,100 -1,268 Descending Chicago Center
Fri 09:47:48 PM 41.3383 -86.4681 289° West 333 383 16,700 -1,548 Descending Chicago Center
Fri 09:48:50 PM 41.3667 -86.5806 289° West 324 373 14,900 -1,610 Descending Chicago Center
Fri 09:49:51 PM 41.3969 -86.6956 289° West 328 377 13,400 -1,512 Descending Chicago Center
Fri 09:50:53 PM 41.4261 -86.8081 289° West 315 362 11,800 -1,210 Descending Chicago Center
Fri 09:51:55 PM 41.4542 -86.9189 289° West 316 364 10,900 -439 Descending Chicago Center
Fri 09:52:56 PM 41.4892 -87.0508 290° West 319 367 10,900 98 Level Chicago Center
Fri 09:53:58 PM 41.5311 -87.1533 299° West 323 372 11,100 77 Climbing Chicago Center
Fri 09:54:14 PM 41.5500 -87.1833 310° West 319 367 11,000 -86 Descending Chicago TRACON
Fri 09:55:08 PM 41.6000 -87.2667 309° West 314 361 11,000 56 Level Chicago TRACON
Fri 09:56:01 PM 41.6394 -87.3328 309° West 314 361 11,100 52 Climbing Chicago Center
Fri 09:57:03 PM 41.6942 -87.4231 309° West 315 362 11,100  Level Chicago Center
Fri 09:58:04 PM 41.7469 -87.5136 308° West 313 360 11,100 -585 Level Chicago Center
Fri 09:59:06 PM 41.8125 -87.6211 309° West 312 359 9,900 -1,403 Descending Chicago Center
Fri 10:00:08 PM 41.8667 -87.7167 307° West 308 354 8,200 -1,377 Descending Chicago TRACON
Fri 10:01:08 PM 41.9167 -87.8000 309° West 304 350 7,100 -550 Descending Chicago TRACON
Fri 10:02:08 PM 41.9167 -87.9000 270° West 276 318 7,100  Level Chicago TRACON
Fri 10:03:03 PM 41.9000 -87.9833 255° West 244 281 7,100  Level Chicago TRACON
Fri 10:04:03 PM 41.8833 -88.0667 255° West 253 291 7,100 -48 Level Chicago TRACON
Fri 10:05:09 PM 41.9000 -88.1667 283° West 248 285 7,000 -95 Descending Chicago TRACON
Fri 10:06:09 PM 41.9000 -88.2667 270° West 311 358 6,900  Descending Chicago TRACON
Fri 10:07:09 PM 41.9000 -88.3500 270° West 197 227 7,000 50 Climbing Chicago TRACON
Fri 10:08:09 PM 41.9000 -88.4167 270° West 207 238 7,000  Level Chicago TRACON
Fri 10:09:09 PM 41.8833 -88.5000 255° West 209 241 7,000  Level Chicago TRACON
Fri 10:10:09 PM 41.9167 -88.5667 304° West 229 264 7,000 -450 Level Chicago TRACON
Fri 10:11:09 PM 41.9500 -88.5167 48° Northeast 181 208 6,100 -880 Descending Chicago TRACON
Fri 10:11:24 PM 41.9572 -88.4947 66° East 176 203 5,900 -857 Descending Chicago Center
Fri 10:12:26 PM 41.9667 -88.4339 78° East 164 189 5,000 -439 Descending Chicago Center
Fri 10:13:27 PM 41.9669 -88.3767 90° East 153 176 5,000  Level Chicago Center
Fri 10:14:29 PM 41.9672 -88.3236 90° East 144 166 5,000  Level Chicago Center
Fri 10:15:30 PM 41.9664 -88.2706 91° East 142 163 5,000 -98 Level Chicago Center
Fri 10:16:32 PM 41.9678 -88.2139 88° East 148 170 4,800 -537 Descending Chicago Center
Fri 10:17:33 PM 41.9678 -88.1594 90° East 148 170 3,900 -865 Descending Chicago Center
Fri 10:18:16 PM 41.9667 -88.1167 92° East 144 166 3,300 -804 Descending Chicago TRACON
Fri 10:19:10 PM 41.9667 -88.0667 90° East 143 165 2,600 -700 Descending Chicago TRACON
Fri 10:20:16 PM 41.9667 -88.0167 90° East 119 137 1,900 -667 Descending Chicago TRACON
Fri 10:21:16 PM 41.9667 -87.9667 90° East 116 133 1,200 -700 Descending Chicago TRACON

Login

Don't have an account? Register now (free) for customized features, flight alerts, and more!